Time;durP1;ratioP1;P1;durP2;ratioP2;P2;SDS_P1;SDS_P2;PMS_P1;PMS_P2;Temp;Humidity;BMP_temperature;BMP_pressure;BME280_temperature;BME280_humidity;BME280_pressure;Samples;Min_cycle;Max_cycle;Signal;HPM_P1;HPM_P2
2023/02/15 00:01:35;;;;;;;47.20;28.15;;;;;;;1.87;100.00;101444.31;4956836;29;20028;-95
2023/02/15 00:04:01;;;;;;;48.83;29.00;;;;;;;1.68;100.00;101415.56;4956808;28;20486;-96
2023/02/15 00:06:27;;;;;;;49.53;30.85;;;;;;;1.51;100.00;101397.81;4956864;29;20027;-95
2023/02/15 00:08:54;;;;;;;47.90;29.20;;;;;;;1.72;100.00;101414.69;4956887;29;20102;-96
2023/02/15 00:11:39;;;;;;;51.10;30.33;;;;;;;1.62;100.00;101416.44;4956903;29;20099;-95
2023/02/15 00:14:24;;;;;;;51.13;29.73;;;;;;;1.61;100.00;101426.59;4956681;28;20470;-93
2023/02/15 00:16:52;;;;;;;49.05;29.40;;;;;;;1.46;100.00;101418.22;4956881;29;20030;-95
2023/02/15 00:19:19;;;;;;;51.35;29.40;;;;;;;1.55;100.00;101414.78;4956988;29;20055;-96
2023/02/15 00:21:47;;;;;;;54.55;28.63;;;;;;;1.57;100.00;101418.16;4956645;29;20058;-94
2023/02/15 00:24:15;;;;;;;59.97;34.05;;;;;;;1.60;100.00;101390.16;4956680;28;20122;-95
2023/02/15 00:26:41;;;;;;;50.35;29.77;;;;;;;1.48;100.00;101377.50;4956663;29;20110;-96
2023/02/15 00:29:09;;;;;;;54.97;31.30;;;;;;;1.63;100.00;101410.47;4956311;29;20038;-95
2023/02/15 00:31:35;;;;;;;49.67;30.75;;;;;;;1.48;100.00;101383.41;4956101;28;20482;-96
2023/02/15 00:34:13;;;;;;;52.50;29.20;;;;;;;1.50;100.00;101385.97;4955741;28;20035;-96
2023/02/15 00:36:39;;;;;;;53.97;30.77;;;;;;;1.48;100.00;101397.84;4956739;29;20031;-95
2023/02/15 00:39:05;;;;;;;57.70;33.28;;;;;;;1.67;100.00;101394.34;4957392;29;20023;-96
2023/02/15 00:41:32;;;;;;;62.42;33.30;;;;;;;1.56;100.00;101380.88;4956573;29;20473;-96
2023/02/15 00:43:57;;;;;;;53.60;30.30;;;;;;;1.69;100.00;101384.19;4956244;28;20027;-96
2023/02/15 00:46:23;;;;;;;61.20;35.08;;;;;;;1.69;100.00;101367.19;4956488;29;20163;-95
2023/02/15 00:48:49;;;;;;;53.53;32.38;;;;;;;1.88;100.00;101393.41;4955595;29;20031;-96
2023/02/15 00:51:15;;;;;;;53.30;33.15;;;;;;;1.88;100.00;101415.47;4956223;29;20126;-96
2023/02/15 00:53:40;;;;;;;59.28;35.70;;;;;;;1.95;100.00;101396.72;4956312;28;20040;-96
2023/02/15 00:56:06;;;;;;;60.83;32.70;;;;;;;1.90;100.00;101380.63;4956164;29;20015;-96
2023/02/15 00:58:31;;;;;;;57.75;33.60;;;;;;;2.13;100.00;101414.44;4956361;29;20031;-96
2023/02/15 01:01:05;;;;;;;61.10;34.58;;;;;;;2.00;100.00;101402.66;4956012;29;20030;-95
2023/02/15 01:03:30;;;;;;;62.17;33.63;;;;;;;1.82;100.00;101374.75;4955207;28;20027;-96
2023/02/15 01:05:56;;;;;;;56.30;32.28;;;;;;;1.80;100.00;101379.00;4956216;29;20389;-96
2023/02/15 01:08:21;;;;;;;53.83;32.03;;;;;;;1.67;100.00;101384.19;4955954;29;20477;-96
2023/02/15 01:10:47;;;;;;;60.70;34.25;;;;;;;1.79;100.00;101387.50;4955778;29;20019;-96
2023/02/15 01:13:15;;;;;;;65.50;35.33;;;;;;;1.71;100.00;101393.50;4955278;28;20031;-94
2023/02/15 01:15:40;;;;;;;62.05;35.50;;;;;;;1.94;100.00;101402.69;4955963;29;20114;-96
2023/02/15 01:18:06;;;;;;;59.35;34.05;;;;;;;1.88;100.00;101379.84;4955266;28;20051;-96
2023/02/15 01:20:38;;;;;;;66.10;38.50;;;;;;;2.21;100.00;101403.34;4955672;29;20051;-96
2023/02/15 01:23:05;;;;;;;60.75;37.03;;;;;;;2.11;100.00;101383.03;4955693;28;20322;-96
2023/02/15 01:25:34;;;;;;;63.10;37.90;;;;;;;1.97;100.00;101369.56;4955401;29;20066;-95
2023/02/15 01:28:00;;;;;;;59.75;34.47;;;;;;;1.96;100.00;101369.59;4955499;29;20035;-96
2023/02/15 01:30:25;;;;;;;68.50;37.35;;;;;;;1.67;100.00;101333.28;4955545;29;20078;-96
2023/02/15 01:32:51;;;;;;;58.53;35.55;;;;;;;1.79;100.00;101352.72;4954966;28;20031;-96
2023/02/15 01:35:17;;;;;;;65.32;38.00;;;;;;;1.80;100.00;101354.41;4955868;29;20134;-96
2023/02/15 01:37:43;;;;;;;69.63;39.80;;;;;;;1.71;100.00;101329.03;4955887;29;20039;-96
2023/02/15 01:40:14;;;;;;;65.22;39.05;;;;;;;1.89;100.00;101353.50;4955902;29;20031;-96
2023/02/15 01:42:40;;;;;;;68.57;39.90;;;;;;;1.66;100.00;101336.69;4955269;28;20039;-96
2023/02/15 01:45:29;;;;;;;67.65;38.65;;;;;;;1.93;100.00;101368.75;4956136;28;20046;-96
2023/02/15 01:48:13;;;;;;;66.05;38.28;;;;;;;1.86;100.00;101368.81;4955336;29;20027;-95
2023/02/15 01:50:52;;;;;;;73.68;41.42;;;;;;;1.58;100.00;101323.16;4956032;29;20038;-95
2023/02/15 01:53:24;;;;;;;61.95;38.17;;;;;;;1.62;100.00;101324.00;4956514;28;20030;-94
2023/02/15 01:55:52;;;;;;;70.95;40.75;;;;;;;1.77;100.00;101359.50;4959627;29;20027;-94
2023/02/15 01:58:19;;;;;;;70.13;40.85;;;;;;;1.60;100.00;101340.97;4961615;29;20027;-94
2023/02/15 02:00:44;;;;;;;72.30;43.08;;;;;;;1.81;100.00;101340.84;4960136;29;20043;-94
2023/02/15 02:03:10;;;;;;;77.38;42.08;;;;;;;1.83;100.00;101338.25;4959933;28;20042;-94
2023/02/15 02:05:38;;;;;;;69.65;39.58;;;;;;;1.63;100.00;101311.25;4960322;29;20030;-95
2023/02/15 02:08:04;;;;;;;72.50;42.60;;;;;;;1.75;100.00;101314.56;4959170;29;20114;-95
2023/02/15 02:10:30;;;;;;;80.00;42.65;;;;;;;1.94;100.00;101339.03;4958773;29;20442;-94
2023/02/15 02:12:59;;;;;;;76.22;40.92;;;;;;;1.97;100.00;101330.53;4958880;28;20038;-94
2023/02/15 02:16:00;;;;;;;70.25;39.63;;;;;;;2.06;100.00;101335.56;4955672;29;20019;-94
2023/02/15 02:18:26;;;;;;;72.70;39.72;;;;;;;2.03;100.00;101338.13;4936092;29;20099;-94
2023/02/15 02:21:22;;;;;;;71.05;40.28;;;;;;;2.09;100.00;101331.28;4938365;29;20510;-94
2023/02/15 02:24:23;;;;;;;74.80;39.75;;;;;;;2.10;100.00;101332.16;4938353;29;20032;-94
2023/02/15 02:27:26;;;;;;;77.32;41.03;;;;;;;2.16;100.00;101324.44;4954262;29;20079;-96
2023/02/15 02:30:26;;;;;;;78.05;41.53;;;;;;;2.12;100.00;101325.31;4939596;29;20059;-95
2023/02/15 02:33:11;;;;;;;73.07;41.58;;;;;;;2.04;100.00;101322.84;4954145;29;20786;-95
2023/02/15 02:36:01;;;;;;;75.75;42.50;;;;;;;1.93;100.00;101304.28;4953780;29;20020;-95
2023/02/15 02:38:38;;;;;;;81.60;42.38;;;;;;;1.93;100.00;101314.44;4938524;29;20474;-95
2023/02/15 02:41:20;;;;;;;76.13;41.92;;;;;;;1.74;100.00;101280.66;4953766;29;20039;-93
2023/02/15 02:43:48;;;;;;;;;;;;;;;1.84;100.00;101300.06;4937896;29;20114;-93
2023/02/15 02:46:14;;;;;;;65.10;38.85;;;;;;;1.74;100.00;101297.63;4949601;29;20027;-94
2023/02/15 02:48:40;;;;;;;71.65;40.38;;;;;;;1.46;100.00;101269.81;4958067;29;20031;-94
2023/02/15 02:51:05;;;;;;;68.28;38.03;;;;;;;1.38;100.00;101259.69;4957113;29;20079;-94
2023/02/15 02:53:33;;;;;;;74.43;39.60;;;;;;;1.37;100.00;101288.53;4957414;28;20027;-94
2023/02/15 02:56:21;;;;;;;68.72;37.75;;;;;;;1.33;100.00;101288.56;4957509;29;20034;-94
2023/02/15 02:58:59;;;;;;;62.03;37.88;;;;;;;1.20;100.00;101296.25;4954613;29;20030;-95
2023/02/15 03:02:00;;;;;;;65.88;37.75;;;;;;;1.33;100.00;101293.63;4953034;29;20039;-93
2023/02/15 03:04:31;;;;;;;71.97;40.05;;;;;;;1.13;100.00;101268.31;4915034;29;20028;-94
2023/02/15 03:07:01;;;;;;;69.07;39.50;;;;;;;0.91;100.00;101242.16;4943953;29;20046;-94
2023/02/15 03:09:41;;;;;;;75.03;41.78;;;;;;;1.01;100.00;101274.31;4953998;29;20027;-94
2023/02/15 03:12:17;;;;;;;72.72;39.78;;;;;;;1.05;100.00;101278.53;4953673;29;20500;-96
2023/02/15 03:14:46;;;;;;;81.60;41.92;;;;;;;0.85;100.00;101240.47;4950001;28;20367;-95
2023/02/15 03:17:13;;;;;;;84.25;45.13;;;;;;;0.83;100.00;101235.41;4950526;29;20485;-95
2023/02/15 03:19:42;;;;;;;71.53;40.92;;;;;;;1.06;100.00;101262.41;4950664;29;20103;-95
2023/02/15 03:22:19;;;;;;;78.47;42.58;;;;;;;0.94;100.00;101242.97;4934566;29;20054;-95
2023/02/15 03:24:56;;;;;;;89.18;44.65;;;;;;;1.18;100.00;101242.00;4935589;29;20038;-95
2023/02/15 03:27:26;;;;;;;88.57;42.53;;;;;;;1.16;100.00;101197.94;4953926;29;20027;-95
2023/02/15 03:29:59;;;;;;;86.35;45.38;;;;;;;1.12;100.00;101206.44;4953932;29;20030;-96
2023/02/15 03:32:29;;;;;;;83.93;44.70;;;;;;;1.03;100.00;101196.34;4953666;29;20024;-94
2023/02/15 03:34:55;;;;;;;91.07;44.97;;;;;;;1.24;100.00;101231.81;4953480;28;20032;-95
2023/02/15 03:37:27;;;;;;;86.70;42.50;;;;;;;1.24;100.00;101244.53;4953579;29;20397;-96
2023/02/15 03:41:09;;;;;;;78.07;43.10;;;;;;;1.17;100.00;101225.06;4953193;29;20110;-96
2023/02/15 03:42:47;;;;;;;84.72;42.55;;;;;;;1.01;100.00;101188.72;4954245;29;20038;-95
2023/02/15 03:45:19;;;;;;;83.60;43.65;;;;;;;1.18;100.00;101224.22;4953426;28;20031;-96
2023/02/15 03:47:47;;;;;;;70.15;39.92;;;;;;;0.89;100.00;101181.16;4953719;29;20456;-96
2023/02/15 03:53:13;;;;;;;77.50;41.90;;;;;;;0.82;100.00;101176.97;4954737;28;20067;-96
2023/02/15 03:55:39;;;;;;;106.60;49.30;;;;;;;0.96;100.00;101179.44;4952825;29;20063;-96
2023/02/15 04:03:49;;;;;;;97.20;48.55;;;;;;;0.94;100.00;101171.81;4954738;28;20045;-94
2023/02/15 04:06:15;;;;;;;89.50;45.22;;;;;;;1.06;100.00;101181.06;4955591;28;20035;-95
2023/02/15 04:11:24;;;;;;;102.07;49.85;;;;;;;1.12;100.00;101191.19;4958223;29;20042;-95
2023/02/15 04:13:56;;;;;;;98.50;47.70;;;;;;;1.07;100.00;101167.50;4956637;28;20031;-95
2023/02/15 04:16:22;;;;;;;101.57;49.78;;;;;;;1.17;100.00;101169.13;4956844;28;20473;-94
2023/02/15 04:27:02;;;;;;;106.65;51.53;;;;;;;0.98;100.00;101153.16;4957352;29;20058;-94
2023/02/15 04:29:28;;;;;;;99.22;48.90;;;;;;;0.96;100.00;101159.09;4956508;29;20028;-95
2023/02/15 04:31:55;;;;;;;96.93;48.40;;;;;;;1.02;100.00;101148.88;4956456;29;20062;-95
2023/02/15 04:34:22;;;;;;;94.97;48.83;;;;;;;1.06;100.00;101155.66;4956460;28;20094;-95
2023/02/15 04:36:47;;;;;;;100.82;48.78;;;;;;;1.03;100.00;101161.59;4956845;29;20023;-96
2023/02/15 04:39:15;;;;;;;97.07;48.85;;;;;;;1.14;100.00;101153.88;4948137;29;20032;-95
2023/02/15 04:41:40;;;;;;;104.75;50.25;;;;;;;1.12;100.00;101153.03;4953371;29;20028;-95
2023/02/15 04:44:06;;;;;;;94.43;48.20;;;;;;;1.24;100.00;101164.84;4937283;29;20028;-95
2023/02/15 04:46:53;;;;;;;;;;;;;;;;;;;;;
2023/02/15 04:49:19;;;;;;;86.28;44.33;;;;;;;1.06;100.00;101145.47;4938688;29;20422;-96
2023/02/15 04:51:44;;;;;;;104.72;50.65;;;;;;;1.19;100.00;101171.66;4953399;29;20106;-96
2023/02/15 04:54:10;;;;;;;99.38;47.75;;;;;;;1.23;100.00;101163.16;4947640;29;20071;-95
2023/02/15 04:56:37;;;;;;;103.18;49.33;;;;;;;1.38;100.00;101170.66;4956023;29;20030;-95
2023/02/15 04:59:03;;;;;;;95.18;46.65;;;;;;;1.35;100.00;101177.50;4955977;29;20035;-96
2023/02/15 05:01:29;;;;;;;96.05;46.60;;;;;;;1.00;100.00;101141.28;4955203;29;20054;-95
2023/02/15 05:03:54;;;;;;;99.28;48.85;;;;;;;1.07;100.00;101119.19;4955219;28;20035;-96
2023/02/15 05:06:20;;;;;;;94.35;46.92;;;;;;;1.24;100.00;101145.34;4955943;29;20521;-96
2023/02/15 05:08:46;;;;;;;101.05;50.58;;;;;;;1.16;100.00;101120.84;4956258;29;20038;-96
2023/02/15 05:11:11;;;;;;;96.05;48.15;;;;;;;1.25;100.00;101148.75;4955794;29;20062;-96
2023/02/15 05:13:37;;;;;;;108.30;50.50;;;;;;;1.36;100.00;101179.16;4955578;28;20078;-96
2023/02/15 05:16:02;;;;;;;101.65;50.40;;;;;;;1.11;100.00;101153.06;4955370;28;20027;-96
2023/02/15 05:18:28;;;;;;;98.32;50.00;;;;;;;1.26;100.00;101161.41;4954554;29;20070;-95
2023/02/15 05:20:54;;;;;;;104.55;48.53;;;;;;;1.27;100.00;101145.31;4955907;29;20470;-95
2023/02/15 05:23:19;;;;;;;97.63;50.17;;;;;;;1.17;100.00;101153.03;4955378;28;20070;-96
2023/02/15 05:28:34;;;;;;;98.30;47.83;;;;;;;1.09;100.00;101145.44;4956625;29;20049;-95
2023/02/15 05:31:06;;;;;;;101.45;49.42;;;;;;;1.18;100.00;101157.25;4955074;29;20031;-96
2023/02/15 05:33:33;;;;;;;99.13;47.33;;;;;;;1.10;100.00;101149.69;4954480;28;20034;-96
2023/02/15 05:35:58;;;;;;;92.90;47.72;;;;;;;0.98;100.00;101157.41;4955015;29;20032;-95
2023/02/15 05:38:24;;;;;;;92.72;47.80;;;;;;;1.02;100.00;101174.31;4955126;29;20035;-96
2023/02/15 05:40:51;;;;;;;113.28;50.15;;;;;;;0.69;100.00;101124.53;4955340;29;20488;-96
2023/02/15 05:43:17;;;;;;;95.68;47.03;;;;;;;0.87;100.00;101154.06;4955048;28;20027;-96
2023/02/15 05:45:51;;;;;;;104.78;48.83;;;;;;;0.67;100.00;101134.69;4954892;29;20038;-96
2023/02/15 05:48:18;;;;;;;114.47;49.58;;;;;;;0.73;100.00;101154.16;4954465;29;20035;-96
2023/02/15 05:50:43;;;;;;;97.72;47.42;;;;;;;0.50;100.00;101127.16;4954905;29;20031;-95
2023/02/15 05:53:09;;;;;;;97.32;45.70;;;;;;;0.42;100.00;101127.22;4954511;28;20054;-96
2023/02/15 05:55:40;;;;;;;97.07;46.60;;;;;;;0.56;100.00;101141.53;4953245;29;20102;-96
2023/02/15 05:58:07;;;;;;;114.22;49.38;;;;;;;0.43;100.00;101133.13;4954998;29;20390;-96
2023/02/15 06:00:44;;;;;;;;;;;;;;;;;;;;;
2023/02/15 06:03:14;;;;;;;147.13;57.53;;;;;;;0.85;100.00;101146.44;4954537;28;20037;-96
2023/02/15 06:05:39;;;;;;;125.60;54.75;;;;;;;0.88;100.00;101143.03;4960912;28;20099;-96
2023/02/15 06:08:05;;;;;;;131.23;55.53;;;;;;;0.99;100.00;101174.34;4967892;28;20114;-96
2023/02/15 06:10:31;;;;;;;118.30;51.38;;;;;;;1.03;100.00;101146.34;4950337;29;20023;-96
2023/02/15 06:12:56;;;;;;;140.20;56.85;;;;;;;1.13;100.00;101166.63;4952649;28;20035;-96
2023/02/15 06:15:22;;;;;;;122.10;54.30;;;;;;;0.81;100.00;101132.94;4944678;29;20086;-95
2023/02/15 06:17:47;;;;;;;105.70;48.55;;;;;;;1.01;100.00;101167.53;4943113;29;20126;-95
2023/02/15 06:20:13;;;;;;;125.47;54.08;;;;;;;1.00;100.00;101170.91;4948654;29;20033;-96
2023/02/15 06:22:38;;;;;;;112.57;51.35;;;;;;;0.87;100.00;101149.00;4952702;29;20488;-96
2023/02/15 06:25:04;;;;;;;103.50;47.53;;;;;;;0.68;100.00;101144.00;4939997;28;20378;-95
2023/02/15 06:27:30;;;;;;;124.68;49.28;;;;;;;0.68;100.00;101158.41;4934145;29;20644;-95
2023/02/15 06:29:55;;;;;;;101.38;47.47;;;;;;;0.98;100.00;101182.81;4940341;29;20023;-96
2023/02/15 06:32:21;;;;;;;101.00;46.50;;;;;;;0.80;100.00;101168.50;4952146;29;20031;-96
2023/02/15 06:34:47;;;;;;;96.40;46.55;;;;;;;0.75;100.00;101167.69;4946962;28;20537;-96
2023/02/15 06:37:14;;;;;;;103.43;47.75;;;;;;;0.81;100.00;101160.03;4936799;29;20071;-96
2023/02/15 06:39:39;;;;;;;116.40;51.63;;;;;;;0.91;100.00;101135.41;4939529;29;20129;-96
2023/02/15 06:42:05;;;;;;;123.93;51.53;;;;;;;0.92;100.00;101178.59;4949914;29;20111;-96
2023/02/15 06:44:30;;;;;;;105.82;50.28;;;;;;;0.67;100.00;101147.41;4953335;28;20081;-96
2023/02/15 06:46:56;;;;;;;99.78;46.80;;;;;;;0.69;100.00;101155.88;4938714;29;20019;-96
2023/02/15 06:49:22;;;;;;;102.28;46.97;;;;;;;0.76;100.00;101162.59;4942928;29;20059;-96
2023/02/15 06:51:47;;;;;;;108.93;47.97;;;;;;;0.89;100.00;101167.63;4940970;29;20123;-96
2023/02/15 06:54:13;;;;;;;95.18;45.30;;;;;;;0.75;100.00;101147.34;4933927;29;20023;-96
2023/02/15 06:56:38;;;;;;;95.55;46.25;;;;;;;0.69;100.00;101130.47;4936019;29;20039;-96
2023/02/15 06:59:04;;;;;;;111.40;49.97;;;;;;;1.02;100.00;101143.81;4946381;29;20085;-96
2023/02/15 07:01:29;;;;;;;121.15;49.72;;;;;;;0.97;100.00;101130.28;4952123;29;20027;-96
2023/02/15 07:03:55;;;;;;;129.95;54.60;;;;;;;1.15;100.00;101134.41;4942521;29;20039;-96
2023/02/15 07:06:20;;;;;;;123.88;52.63;;;;;;;1.17;100.00;101143.72;4945629;29;20472;-95
2023/02/15 07:08:46;;;;;;;126.38;54.83;;;;;;;1.37;100.00;101165.59;4942663;29;20123;-96
2023/02/15 07:13:56;;;;;;;126.03;51.75;;;;;;;1.34;100.00;101158.84;4945457;28;20034;-96
2023/02/15 07:16:22;;;;;;;126.95;53.13;;;;;;;1.06;100.00;101125.97;4940519;29;20032;-96
2023/02/15 07:18:47;;;;;;;117.38;50.08;;;;;;;1.07;100.00;101142.06;4946105;29;20039;-96
2023/02/15 07:21:13;;;;;;;113.43;52.28;;;;;;;1.12;100.00;101135.25;4934688;29;20028;-96
2023/02/15 07:23:39;;;;;;;129.73;52.22;;;;;;;1.21;100.00;101159.78;4943353;28;20031;-95
2023/02/15 07:26:06;;;;;;;111.50;49.47;;;;;;;1.18;100.00;101130.13;4937722;29;20031;-95
2023/02/15 07:28:33;;;;;;;109.65;48.42;;;;;;;1.17;100.00;101136.09;4948210;29;20027;-96
2023/02/15 07:31:01;;;;;;;131.52;50.40;;;;;;;1.20;100.00;101156.41;4963145;28;20576;-95
2023/02/15 07:33:27;;;;;;;129.13;52.00;;;;;;;1.21;100.00;101137.72;4970844;28;20032;-95
2023/02/15 07:35:58;;;;;;;116.57;48.97;;;;;;;1.18;100.00;101142.84;4942994;29;20100;-96
2023/02/15 07:38:29;;;;;;;117.60;50.60;;;;;;;1.45;100.00;101168.91;4942934;29;20031;-96
2023/02/15 07:41:04;;;;;;;115.35;50.35;;;;;;;1.53;100.00;101149.34;4970929;28;20062;-95
2023/02/15 07:43:32;;;;;;;116.05;49.15;;;;;;;1.68;100.00;101167.03;4963545;28;20043;-96
2023/02/15 07:46:04;;;;;;;134.95;53.25;;;;;;;1.64;100.00;101175.53;4940581;29;20058;-96
2023/02/15 07:48:30;;;;;;;120.88;48.92;;;;;;;1.89;100.00;101165.13;4941263;29;20043;-96
2023/02/15 07:51:04;;;;;;;148.10;54.40;;;;;;;1.89;100.00;101171.06;4947598;29;20060;-96
2023/02/15 07:53:30;;;;;;;147.82;55.45;;;;;;;1.84;100.00;101152.44;4947077;28;20043;-96
2023/02/15 07:56:00;;;;;;;117.90;52.53;;;;;;;2.19;100.00;101176.69;4951002;29;20031;-96
2023/02/15 07:58:50;;;;;;;137.60;51.83;;;;;;;2.26;100.00;101155.38;4954651;29;20156;-96
2023/02/15 08:01:13;;;;;;;134.00;52.25;;;;;;;2.38;100.00;101166.31;4951739;29;20119;-96
2023/02/15 08:03:39;;;;;;;130.82;50.38;;;;;;;2.57;100.00;101171.16;4943164;28;20027;-96
2023/02/15 08:06:05;;;;;;;125.18;50.13;;;;;;;2.91;100.00;101137.56;4941771;29;20031;-96
2023/02/15 08:08:30;;;;;;;141.23;55.35;;;;;;;3.20;100.00;101179.66;4943355;29;20042;-95
2023/02/15 08:11:25;;;;;;;149.63;56.10;;;;;;;3.15;100.00;101144.00;4972643;28;20462;-95
2023/02/15 08:13:54;;;;;;;135.18;54.78;;;;;;;3.49;100.00;101178.31;4952854;28;20031;-96
2023/02/15 08:16:24;;;;;;;132.32;55.50;;;;;;;3.76;100.00;101198.31;4946891;29;20536;-94
2023/02/15 08:18:51;;;;;;;129.20;54.05;;;;;;;4.01;100.00;101172.34;4938744;29;20032;-95
2023/02/15 08:21:17;;;;;;;131.90;55.80;;;;;;;4.41;100.00;101187.72;4950927;29;20020;-95
2023/02/15 08:23:43;;;;;;;130.70;56.70;;;;;;;4.75;100.00;101161.47;4945085;28;20027;-96
2023/02/15 08:26:09;;;;;;;130.57;55.28;;;;;;;5.20;100.00;101157.94;4940975;29;20121;-96
2023/02/15 08:28:34;;;;;;;129.88;56.08;;;;;;;5.71;100.00;101162.66;4951174;28;20038;-95
2023/02/15 08:31:08;;;;;;;127.40;53.35;;;;;;;6.24;100.00;101168.06;4955671;29;20039;-96
2023/02/15 08:33:35;;;;;;;114.07;53.90;;;;;;;6.76;100.00;101148.63;4956456;28;20027;-95
2023/02/15 08:36:14;;;;;;;116.90;52.30;;;;;;;7.90;100.00;101179.19;4957774;29;20031;-94
2023/02/15 08:38:40;;;;;;;103.93;49.45;;;;;;;8.43;100.00;101151.63;4958332;29;20390;-93
2023/02/15 08:41:30;;;;;;;101.07;49.42;;;;;;;8.61;100.00;101135.53;4957014;28;20054;-94
2023/02/15 08:43:58;;;;;;;77.68;43.25;;;;;;;8.80;100.00;101179.38;4955047;28;20019;-96
2023/02/15 08:46:26;;;;;;;71.80;38.17;;;;;;;8.79;100.00;101157.13;4956878;29;20034;-96
2023/02/15 08:48:51;;;;;;;55.15;33.05;;;;;;;8.60;100.00;101143.28;4955810;29;20019;-96
2023/02/15 08:51:23;;;;;;;55.55;31.65;;;;;;;8.67;100.00;101139.59;4955577;28;20471;-96
2023/02/15 08:53:51;;;;;;;47.95;30.17;;;;;;;9.24;99.99;101143.31;4956008;28;20024;-96
2023/02/15 08:56:18;;;;;;;45.25;28.55;;;;;;;9.53;98.04;101167.06;4955635;29;20031;-96
2023/02/15 08:58:44;;;;;;;46.70;27.52;;;;;;;9.77;96.44;101154.91;4965885;28;20036;-96
2023/02/15 09:01:19;;;;;;;39.05;24.30;;;;;;;10.17;93.69;101146.28;4936906;29;20043;-96
2023/02/15 09:03:47;;;;;;;34.97;23.20;;;;;;;9.60;92.48;101137.56;4966798;28;20050;-95
2023/02/15 09:06:13;;;;;;;38.95;25.08;;;;;;;9.91;89.21;101149.16;4955848;29;20035;-96
2023/02/15 09:08:39;;;;;;;34.70;21.55;;;;;;;9.76;89.14;101136.00;4955392;29;20023;-96
2023/02/15 09:11:24;;;;;;;36.88;22.48;;;;;;;10.86;83.97;101161.22;4955749;29;20031;-95
2023/02/15 09:13:53;;;;;;;32.05;20.83;;;;;;;10.79;82.40;101128.00;4954688;28;20031;-94
2023/02/15 09:16:19;;;;;;;33.40;20.17;;;;;;;10.90;82.91;101161.91;4955428;29;20031;-96
2023/02/15 09:18:45;;;;;;;31.95;19.45;;;;;;;11.22;81.94;101162.13;4956033;29;20031;-95
2023/02/15 09:21:16;;;;;;;33.55;19.33;;;;;;;10.88;82.36;101143.06;4955875;29;20474;-95
2023/02/15 09:23:43;;;;;;;29.20;17.50;;;;;;;10.27;85.43;101137.22;4954346;28;20039;-96
2023/02/15 09:26:12;;;;;;;27.42;17.80;;;;;;;9.75;90.55;101154.94;4953511;29;20285;-96
2023/02/15 09:28:38;;;;;;;31.63;17.98;;;;;;;9.47;91.21;101126.09;4952074;28;20027;-96
2023/02/15 09:31:33;;;;;;;34.60;19.55;;;;;;;9.75;91.40;101159.28;4946730;29;20102;-96
2023/02/15 09:34:02;;;;;;;25.27;16.85;;;;;;;10.10;88.48;101123.41;4951051;28;20401;-95
2023/02/15 09:36:34;;;;;;;34.90;18.55;;;;;;;13.47;70.88;101115.63;4936074;29;20031;-96
2023/02/15 09:39:17;;;;;;;28.50;16.23;;;;;;;15.11;62.55;101120.19;4936229;29;20442;-96
2023/02/15 09:41:54;;;;;;;32.33;15.27;;;;;;;18.56;50.87;101146.53;4935406;29;20024;-96
2023/02/15 09:44:57;;;;;;;28.33;15.40;;;;;;;20.66;46.20;101154.28;4948185;28;20046;-96
2023/02/15 09:47:47;;;;;;;25.45;14.80;;;;;;;19.30;46.78;101151.03;4942183;29;20039;-95
2023/02/15 09:50:34;;;;;;;24.50;13.65;;;;;;;19.13;46.06;101155.84;4953459;28;20509;-96
2023/02/15 09:53:15;;;;;;;23.15;11.85;;;;;;;20.28;44.33;101163.66;4946696;29;20525;-96
2023/02/15 09:55:56;;;;;;;25.58;11.95;;;;;;;19.96;44.83;101146.31;4941052;29;20042;-96
2023/02/15 09:58:36;;;;;;;20.25;12.50;;;;;;;20.21;44.11;101167.78;4953572;29;20031;-96
2023/02/15 10:01:43;;;;;;;25.65;13.57;;;;;;;20.15;44.89;101165.72;4951123;29;20122;-96
2023/02/15 10:04:33;;;;;;;23.23;11.57;;;;;;;22.46;40.21;101154.31;4943702;28;20035;-96
2023/02/15 10:07:29;;;;;;;20.73;11.15;;;;;;;21.13;42.37;101160.50;4950932;28;20031;-96
2023/02/15 10:10:11;;;;;;;21.67;11.15;;;;;;;22.50;39.60;101137.22;4947664;29;20118;-96
2023/02/15 10:12:37;;;;;;;;;;;;;;;23.06;38.79;101146.66;4940871;29;20024;-96
2023/02/15 10:15:11;;;;;;;19.17;9.70;;;;;;;23.41;38.53;101141.47;4946607;29;19968;-96
2023/02/15 10:17:59;;;;;;;18.70;8.77;;;;;;;24.33;36.34;101135.47;4952834;29;20027;-96
2023/02/15 10:20:54;;;;;;;16.13;8.23;;;;;;;25.76;34.44;101132.53;4944839;29;20044;-96
2023/02/15 10:23:25;;;;;;;17.88;8.20;;;;;;;24.40;36.32;101145.41;4937909;28;20106;-96
2023/02/15 10:25:51;;;;;;;22.67;9.50;;;;;;;21.99;39.29;101159.63;4948130;29;20074;-96
2023/02/15 10:28:22;;;;;;;20.52;8.48;;;;;;;25.14;34.90;101144.53;4953237;29;20429;-96
2023/02/15 10:30:50;;;;;;;13.57;8.18;;;;;;;26.44;33.04;101131.88;4947160;29;20032;-96
2023/02/15 10:33:34;;;;;;;17.10;9.43;;;;;;;22.82;38.36;101130.63;4934467;29;20038;-96
2023/02/15 10:36:28;;;;;;;19.20;8.82;;;;;;;26.54;32.78;101160.00;4949300;29;20035;-96
2023/02/15 10:39:07;;;;;;;12.52;7.25;;;;;;;27.87;30.84;101164.78;4944165;29;20026;-96
2023/02/15 10:41:45;;;;;;;19.08;8.82;;;;;;;29.19;29.26;101170.72;4935355;29;20058;-96
2023/02/15 10:44:35;;;;;;;18.02;8.82;;;;;;;27.28;31.39;101165.53;4947785;28;20482;-96
2023/02/15 10:47:25;;;;;;;16.58;8.85;;;;;;;26.52;33.02;101180.47;4934687;29;20023;-96
2023/02/15 10:50:07;;;;;;;16.38;8.98;;;;;;;28.02;30.30;101147.03;4942283;29;20114;-96
2023/02/15 10:52:51;;;;;;;20.23;8.13;;;;;;;21.99;38.41;101151.72;4938575;29;20045;-96
2023/02/15 10:55:32;;;;;;;23.48;9.13;;;;;;;24.56;35.79;101171.88;4957453;28;20046;-96
2023/02/15 10:58:25;;;;;;;20.27;8.55;;;;;;;27.45;31.29;101171.50;4936761;28;20024;-96
2023/02/15 11:01:14;;;;;;;14.00;6.85;;;;;;;26.36;32.79;101182.22;4939058;29;20027;-96
2023/02/15 11:03:55;;;;;;;15.98;7.28;;;;;;;25.82;33.52;101153.84;4930356;29;20102;-96
2023/02/15 11:06:23;;;;;;;13.80;7.07;;;;;;;24.93;34.63;101141.56;4982895;28;20035;-96
2023/02/15 11:09:01;;;;;;;16.10;7.07;;;;;;;26.45;32.79;101164.47;4951956;29;20122;-96
2023/02/15 11:11:40;;;;;;;17.05;6.53;;;;;;;26.36;32.84;101120.50;4951047;29;20027;-96
2023/02/15 11:14:21;;;;;;;12.93;6.38;;;;;;;26.07;33.14;101113.22;4940661;29;20028;-96
2023/02/15 11:16:52;;;;;;;18.75;6.82;;;;;;;25.81;32.92;101148.69;4952588;29;20118;-96
2023/02/15 11:19:26;;;;;;;18.17;7.00;;;;;;;24.01;36.43;101145.94;4947324;29;20042;-96
2023/02/15 11:22:12;;;;;;;16.27;7.25;;;;;;;24.19;36.01;101148.47;4938355;29;20555;-96
2023/02/15 11:24:43;;;;;;;19.25;7.88;;;;;;;24.47;35.96;101130.63;4947042;28;20142;-96
2023/02/15 11:27:12;;;;;;;17.85;7.15;;;;;;;22.67;39.40;101153.19;4957513;29;20589;-96
2023/02/15 11:29:45;;;;;;;18.08;7.75;;;;;;;23.07;38.67;101155.41;4957610;29;20081;-96
2023/02/15 11:32:37;;;;;;;16.98;7.32;;;;;;;22.60;39.78;101145.06;4957138;28;20477;-96
2023/02/15 11:35:23;;;;;;;14.68;6.75;;;;;;;24.51;36.71;101147.78;4969878;28;20040;-96
2023/02/15 11:37:54;;;;;;;19.92;7.50;;;;;;;25.23;35.41;101157.75;4945134;29;20031;-96
2023/02/15 11:40:20;;;;;;;14.13;6.55;;;;;;;24.79;35.72;101166.78;4956164;29;20462;-96
2023/02/15 11:42:49;;;;;;;17.75;6.90;;;;;;;24.20;36.84;101134.31;4951502;29;20036;-96
2023/02/15 11:45:29;;;;;;;18.42;6.88;;;;;;;23.14;38.28;101168.75;4946232;29;20445;-96
2023/02/15 11:47:56;;;;;;;15.77;7.70;;;;;;;22.03;40.06;101137.34;4953033;29;20082;-96
2023/02/15 11:50:27;;;;;;;15.70;7.25;;;;;;;21.71;40.77;101143.81;4955399;29;20027;-96
2023/02/15 11:52:58;;;;;;;19.73;7.45;;;;;;;23.02;38.76;101137.44;4938610;29;20089;-95
2023/02/15 11:55:25;;;;;;;18.05;7.05;;;;;;;24.08;37.01;101141.69;4946717;29;20050;-96
2023/02/15 11:57:54;;;;;;;21.38;8.07;;;;;;;22.99;38.93;101132.44;4951584;29;20043;-96